Map

Track Data

SID SEASON NUMBER BASIN SUBBASIN NAME ISO_TIME NATURE LAT LON WMO_WIND WMO_PRES WMO_AGENCY TRACK_TYPE DIST2LAND LANDFALL IFLAG USA_AGENCY USA_ATCF_ID USA_LAT USA_LON USA_RECORD USA_STATUS USA_WIND USA_PRES USA_SSHS USA_R34_NE USA_R34_SE USA_R34_SW USA_R34_NW USA_R50_NE USA_R50_SE USA_R50_SW USA_R50_NW USA_R64_NE USA_R64_SE USA_R64_SW USA_R64_NW USA_POCI USA_ROCI USA_RMW USA_EYE TOKYO_LAT TOKYO_LON TOKYO_GRADE TOKYO_WIND TOKYO_PRES TOKYO_R50_DIR TOKYO_R50_LONG TOKYO_R50_SHORT TOKYO_R30_DIR TOKYO_R30_LONG TOKYO_R30_SHORT TOKYO_LAND CMA_LAT CMA_LON CMA_CAT CMA_WIND CMA_PRES HKO_LAT HKO_LON HKO_CAT HKO_WIND HKO_PRES NEWDELHI_LAT NEWDELHI_LON NEWDELHI_GRADE NEWDELHI_WIND NEWDELHI_PRES NEWDELHI_CI NEWDELHI_DP NEWDELHI_POCI REUNION_LAT REUNION_LON REUNION_TYPE REUNION_WIND REUNION_PRES REUNION_TNUM REUNION_CI REUNION_RMW REUNION_R34_NE REUNION_R34_SE REUNION_R34_SW REUNION_R34_NW REUNION_R50_NE REUNION_R50_SE REUNION_R50_SW REUNION_R50_NW REUNION_R64_NE REUNION_R64_SE REUNION_R64_SW REUNION_R64_NW BOM_LAT BOM_LON BOM_TYPE BOM_WIND BOM_PRES BOM_TNUM BOM_CI BOM_RMW BOM_R34_NE BOM_R34_SE BOM_R34_SW BOM_R34_NW BOM_R50_NE BOM_R50_SE BOM_R50_SW BOM_R50_NW BOM_R64_NE BOM_R64_SE BOM_R64_SW BOM_R64_NW BOM_ROCI BOM_POCI BOM_EYE BOM_POS_METHOD BOM_PRES_METHOD NADI_LAT NADI_LON NADI_CAT NADI_WIND NADI_PRES WELLINGTON_LAT WELLINGTON_LON WELLINGTON_WIND WELLINGTON_PRES DS824_LAT DS824_LON DS824_STAGE DS824_WIND DS824_PRES TD9636_LAT TD9636_LON TD9636_STAGE TD9636_WIND TD9636_PRES TD9635_LAT TD9635_LON TD9635_WIND TD9635_PRES TD9635_ROCI NEUMANN_LAT NEUMANN_LON NEUMANN_CLASS NEUMANN_WIND NEUMANN_PRES MLC_LAT MLC_LON MLC_CLASS MLC_WIND MLC_PRES USA_GUST BOM_GUST BOM_GUST_PER REUNION_GUST REUNION_GUST_PER USA_SEAHGT USA_SEARAD_NE USA_SEARAD_SE USA_SEARAD_SW USA_SEARAD_NW STORM_SPEED STORM_DIR
1933226N12339 1933 40 NA NA NOT_NAMED 1933-08-13 12:00:00 TS 12.3000 -21.5000 30 hurdat_atl main 509 509 O_____________ hurdat_atl AL061933 12.3000 -21.5000 TD 30 -1 14 278
1933226N12339 1933 40 NA NA NOT_NAMED 1933-08-13 15:00:00 TS 12.3904 -22.2000 main 569 569 P_____________ AL061933 12.3904 -22.2000 TD 32 -1 14 278
1933226N12339 1933 40 NA NA NOT_NAMED 1933-08-13 18:00:00 TS 12.5000 -22.9000 35 hurdat_atl main 633 633 O_____________ hurdat_atl AL061933 12.5000 -22.9000 TS 35 0 14 280
1933226N12339 1933 40 NA NA NOT_NAMED 1933-08-13 21:00:00 TS 12.6423 -23.6000 main 700 696 P_____________ AL061933 12.6423 -23.6000 TS 37 0 14 282
1933226N12339 1933 40 NA NA NOT_NAMED 1933-08-14 00:00:00 TS 12.8000 -24.3000 40 hurdat_atl main 764 764 O_____________ hurdat_atl AL061933 12.8000 -24.3000 TS 40 0 14 283
1933226N12339 1933 40 NA NA NOT_NAMED 1933-08-14 03:00:00 TS 12.9573 -24.9925 main 832 832 P_____________ AL061933 12.9573 -24.9925 TS 40 0 14 282
1933226N12339 1933 40 NA NA NOT_NAMED 1933-08-14 06:00:00 TS 13.1000 -25.7000 40 hurdat_atl main 903 903 O_____________ hurdat_atl AL061933 13.1000 -25.7000 TS 40 0 14 280
1933226N12339 1933 40 NA NA NOT_NAMED 1933-08-14 09:00:00 TS 13.2072 -26.4277 main 975 975 P_____________ AL061933 13.2072 -26.4277 TS 42 0 15 278
1933226N12339 1933 40 NA NA NOT_NAMED 1933-08-14 12:00:00 TS 13.3000 -27.2000 45 hurdat_atl main 1058 1058 O_____________ hurdat_atl AL061933 13.3000 -27.2000 TS 45 0 16 277
1933226N12339 1933 40 NA NA NOT_NAMED 1933-08-14 15:00:00 TS 13.3998 -28.0276 main 1142 1142 P_____________ AL061933 13.3998 -28.0276 TS 45 0 17 277
1933226N12339 1933 40 NA NA NOT_NAMED 1933-08-14 18:00:00 TS 13.5000 -28.9000 45 hurdat_atl main 1237 1237 O_____________ hurdat_atl AL061933 13.5000 -28.9000 TS 45 0 17 277
1933226N12339 1933 40 NA NA NOT_NAMED 1933-08-14 21:00:00 TS 13.5998 -29.7926 main 1332 1332 P_____________ AL061933 13.5998 -29.7926 TS 45 0 18 277
1933226N12339 1933 40 NA NA NOT_NAMED 1933-08-15 00:00:00 TS 13.7000 -30.7000 45 hurdat_atl main 1427 1427 O_____________ hurdat_atl AL061933 13.7000 -30.7000 TS 45 0 18 276
1933226N12339 1933 40 NA NA NOT_NAMED 1933-08-15 03:00:00 TS 13.7921 -31.5927 main 1523 1523 P_____________ AL061933 13.7921 -31.5927 TS 47 0 18 277
1933226N12339 1933 40 NA NA NOT_NAMED 1933-08-15 06:00:00 TS 13.9000 -32.5000 50 hurdat_atl main 1619 1619 O_____________ hurdat_atl AL061933 13.9000 -32.5000 TS 50 0 18 278
1933226N12339 1933 40 NA NA NOT_NAMED 1933-08-15 09:00:00 TS 14.0423 -33.4500 main 1725 1725 P_____________ AL061933 14.0423 -33.4500 TS 50 0 19 279
1933226N12339 1933 40 NA NA NOT_NAMED 1933-08-15 12:00:00 TS 14.2000 -34.4000 50 hurdat_atl main 1821 1821 O_____________ hurdat_atl AL061933 14.2000 -34.4000 TS 50 0 18 280
1933226N12339 1933 40 NA NA NOT_NAMED 1933-08-15 15:00:00 TS 14.3496 -35.3076 main 1917 1917 P_____________ AL061933 14.3496 -35.3076 TS 50 0 18 280
1933226N12339 1933 40 NA NA NOT_NAMED 1933-08-15 18:00:00 TS 14.5000 -36.2000 50 hurdat_atl main 1989 1937 O_____________ hurdat_atl AL061933 14.5000 -36.2000 TS 50 0 18 280
1933226N12339 1933 40 NA NA NOT_NAMED 1933-08-15 21:00:00 TS 14.6497 -37.1001 main 1937 1872 P_____________ AL061933 14.6497 -37.1001 TS 52 0 18 280
1933226N12339 1933 40 NA NA NOT_NAMED 1933-08-16 00:00:00 TS 14.8000 -38.0000 55 hurdat_atl main 1872 1804 O_____________ hurdat_atl AL061933 14.8000 -38.0000 TS 55 0 18 280
1933226N12339 1933 40 NA NA NOT_NAMED 1933-08-16 03:00:00 TS 14.9421 -38.9002 main 1804 1746 P_____________ AL061933 14.9421 -38.9002 TS 55 0 18 280
1933226N12339 1933 40 NA NA NOT_NAMED 1933-08-16 06:00:00 TS 15.1000 -39.8000 55 hurdat_atl main 1746 1692 O_____________ hurdat_atl AL061933 15.1000 -39.8000 TS 55 0 18 281
1933226N12339 1933 40 NA NA NOT_NAMED 1933-08-16 09:00:00 TS 15.2846 -40.7002 main 1692 1643 P_____________ AL061933 15.2846 -40.7002 TS 57 0 18 283
1933226N12339 1933 40 NA NA NOT_NAMED 1933-08-16 12:00:00 TS 15.5000 -41.6000 60 hurdat_atl main 1643 1599 O_____________ hurdat_atl AL061933 15.5000 -41.6000 TS 60 0 18 285
1933226N12339 1933 40 NA NA NOT_NAMED 1933-08-16 15:00:00 TS 15.7346 -42.5002 main 1599 1569 P_____________ AL061933 15.7346 -42.5002 TS 62 0 18 286
1933226N12339 1933 40 NA NA NOT_NAMED 1933-08-16 18:00:00 TS 16.0000 -43.4000 65 hurdat_atl main 1569 1535 O_____________ hurdat_atl AL061933 16.0000 -43.4000 HU 65 1 18 288
1933226N12339 1933 40 NA NA NOT_NAMED 1933-08-16 21:00:00 TS 16.2846 -44.3003 main 1538 1512 P_____________ AL061933 16.2846 -44.3003 HU 67 1 18 289
1933226N12339 1933 40 NA NA NOT_NAMED 1933-08-17 00:00:00 TS 16.6000 -45.2000 70 hurdat_atl main 1510 1489 O_____________ hurdat_atl AL061933 16.6000 -45.2000 HU 70 1 19 291
1933226N12339 1933 40 NA NA NOT_NAMED 1933-08-17 03:00:00 TS 16.9347 -46.1078 main 1489 1479 P_____________ AL061933 16.9347 -46.1078 HU 72 1 19 292
1933226N12339 1933 40 NA NA NOT_NAMED 1933-08-17 06:00:00 TS 17.3000 -47.0000 75 hurdat_atl main 1484 1480 O_____________ hurdat_atl AL061933 17.3000 -47.0000 HU 75 1 19 294
1933226N12339 1933 40 NA NA NOT_NAMED 1933-08-17 09:00:00 TS 17.6848 -47.8802 main 1487 1483 P_____________ AL061933 17.6848 -47.8802 HU 80 1 18 296
1933226N12339 1933 40 NA NA NOT_NAMED 1933-08-17 12:00:00 TS 18.1000 -48.7000 85 hurdat_atl main 1491 1486 O_____________ hurdat_atl AL061933 18.1000 -48.7000 HU 85 2 17 300
1933226N12339 1933 40 NA NA NOT_NAMED 1933-08-17 15:00:00 TS 18.5271 -49.4305 main 1503 1494 P_____________ AL061933 18.5271 -49.4305 HU 87 2 16 304
1933226N12339 1933 40 NA NA NOT_NAMED 1933-08-17 18:00:00 TS 19.0000 -50.1000 90 hurdat_atl main 1494 1480 O_____________ hurdat_atl AL061933 19.0000 -50.1000 HU 90 2 16 309
1933226N12339 1933 40 NA NA NOT_NAMED 1933-08-17 21:00:00 TS 19.5272 -50.7579 main 1472 1470 P_____________ AL061933 19.5272 -50.7579 HU 92 2 17 312
1933226N12339 1933 40 NA NA NOT_NAMED 1933-08-18 00:00:00 TS 20.1000 -51.4000 95 hurdat_atl main 1471 1446 O_____________ hurdat_atl AL061933 20.1000 -51.4000 HU 95 2 17 314
1933226N12339 1933 40 NA NA NOT_NAMED 1933-08-18 03:00:00 TS 20.6998 -52.0577 main 1437 1387 P_____________ AL061933 20.6998 -52.0577 HU 100 3 17 315
1933226N12339 1933 40 NA NA NOT_NAMED 1933-08-18 06:00:00 TS 21.3000 -52.7000 105 hurdat_atl main 1387 1338 O_____________ hurdat_atl AL061933 21.3000 -52.7000 HU 105 3 16 315
1933226N12339 1933 40 NA NA NOT_NAMED 1933-08-18 09:00:00 TS 21.8646 -53.3006 main 1341 1298 P_____________ AL061933 21.8646 -53.3006 HU 107 3 16 315
1933226N12339 1933 40 NA NA NOT_NAMED 1933-08-18 12:00:00 TS 22.4000 -53.9000 110 hurdat_atl main 1298 1259 O_____________ hurdat_atl AL061933 22.4000 -53.9000 HU 110 3 16 312
1933226N12339 1933 40 NA NA NOT_NAMED 1933-08-18 15:00:00 TS 22.9073 -54.5430 main 1259 1215 P_____________ AL061933 22.9073 -54.5430 HU 112 3 16 310
1933226N12339 1933 40 NA NA NOT_NAMED 1933-08-18 18:00:00 TS 23.4000 -55.2000 115 948 hurdat_atl main 1215 1181 O_____________ hurdat_atl AL061933 23.4000 -55.2000 HU 115 948 4 16 310
1933226N12339 1933 40 NA NA NOT_NAMED 1933-08-18 21:00:00 TS 23.8997 -55.8505 main 1178 1155 P_____________ AL061933 23.8997 -55.8505 HU 115 4 16 310
1933226N12339 1933 40 NA NA NOT_NAMED 1933-08-19 00:00:00 TS 24.4000 -56.5000 115 hurdat_atl main 1155 1132 O_____________ hurdat_atl AL061933 24.4000 -56.5000 HU 115 4 16 310
1933226N12339 1933 40 NA NA NOT_NAMED 1933-08-19 03:00:00 TS 24.8998 -57.1579 main 1131 1121 P_____________ AL061933 24.8998 -57.1579 HU 117 4 15 310
1933226N12339 1933 40 NA NA NOT_NAMED 1933-08-19 06:00:00 TS 25.4000 -57.8000 120 hurdat_atl main 1121 1114 O_____________ hurdat_atl AL061933 25.4000 -57.8000 HU 120 4 15 311
1933226N12339 1933 40 NA NA NOT_NAMED 1933-08-19 09:00:00 TS 25.9074 -58.4302 main 1118 1111 P_____________ AL061933 25.9074 -58.4302 HU 120 4 15 313
1933226N12339 1933 40 NA NA NOT_NAMED 1933-08-19 12:00:00 TS 26.4000 -59.0000 120 hurdat_atl main 1121 1121 O_____________ hurdat_atl AL061933 26.4000 -59.0000 HU 120 4 13 316
1933226N12339 1933 40 NA NA NOT_NAMED 1933-08-19 15:00:00 TS 26.8721 -59.4730 main 1137 1137 P_____________ AL061933 26.8721 -59.4730 HU 120 4 12 318
1933226N12339 1933 40 NA NA NOT_NAMED 1933-08-19 18:00:00 TS 27.3000 -59.9000 120 hurdat_atl main 1153 1153 O_____________ hurdat_atl AL061933 27.3000 -59.9000 HU 120 4 11 316
1933226N12339 1933 40 NA NA NOT_NAMED 1933-08-19 21:00:00 TS 27.6798 -60.3503 main 1167 1167 P_____________ AL061933 27.6798 -60.3503 HU 120 4 11 311
1933226N12339 1933 40 NA NA NOT_NAMED 1933-08-20 00:00:00 TS 28.0000 -60.8000 120 hurdat_atl main 1179 1175 O_____________ hurdat_atl AL061933 28.0000 -60.8000 HU 120 4 10 306
1933226N12339 1933 40 NA NA NOT_NAMED 1933-08-20 03:00:00 TS 28.2574 -61.2579 main 1190 1186 P_____________ AL061933 28.2574 -61.2579 HU 117 4 9 302
1933226N12339 1933 40 NA NA NOT_NAMED 1933-08-20 06:00:00 TS 28.5000 -61.7000 115 hurdat_atl main 1196 1193 O_____________ hurdat_atl AL061933 28.5000 -61.7000 HU 115 4 9 306
1933226N12339 1933 40 NA NA NOT_NAMED 1933-08-20 09:00:00 TS 28.7922 -62.0928 main 1215 1212 P_____________ AL061933 28.7922 -62.0928 HU 115 4 9 311
1933226N12339 1933 40 NA NA NOT_NAMED 1933-08-20 12:00:00 TS 29.1000 -62.5000 115 hurdat_atl main 1236 1236 O_____________ hurdat_atl AL061933 29.1000 -62.5000 HU 115 4 10 308
1933226N12339 1933 40 NA NA NOT_NAMED 1933-08-20 15:00:00 TS 29.4074 -62.9776 main 1257 1257 P_____________ AL061933 29.4074 -62.9776 HU 115 4 11 305
1933226N12339 1933 40 NA NA NOT_NAMED 1933-08-20 18:00:00 TS 29.7000 -63.5000 115 hurdat_atl main 1280 1256 O_____________ hurdat_atl AL061933 29.7000 -63.5000 HU 115 4 11 301
1933226N12339 1933 40 NA NA NOT_NAMED 1933-08-20 21:00:00 TS 29.9573 -64.0354 main 1250 1190 P_____________ AL061933 29.9573 -64.0354 HU 112 3 11 298
1933226N12339 1933 40 NA NA NOT_NAMED 1933-08-21 00:00:00 TS 30.2000 -64.6000 110 hurdat_atl main 1190 1130 O_____________ hurdat_atl AL061933 30.2000 -64.6000 HU 110 3 11 296
1933226N12339 1933 40 NA NA NOT_NAMED 1933-08-21 03:00:00 TS 30.4498 -65.1927 main 1130 1063 P_____________ AL061933 30.4498 -65.1927 HU 110 3 11 296
1933226N12339 1933 40 NA NA NOT_NAMED 1933-08-21 06:00:00 TS 30.7000 -65.8000 110 hurdat_atl main 1063 1004 O_____________ hurdat_atl AL061933 30.7000 -65.8000 HU 110 3 12 296
1933226N12339 1933 40 NA NA NOT_NAMED 1933-08-21 09:00:00 TS 30.9574 -66.4151 main 997 938 P_____________ AL061933 30.9574 -66.4151 HU 110 3 11 296
1933226N12339 1933 40 NA NA NOT_NAMED 1933-08-21 12:00:00 TS 31.2000 -67.0000 110 hurdat_atl main 938 886 O_____________ hurdat_atl AL061933 31.2000 -67.0000 HU 110 3 10 296
1933226N12339 1933 40 NA NA NOT_NAMED 1933-08-21 15:00:00 TS 31.4071 -67.5154 main 886 835 P_____________ AL061933 31.4071 -67.5154 HU 110 3 9 295
1933226N12339 1933 40 NA NA NOT_NAMED 1933-08-21 18:00:00 TS 31.6000 -68.0000 110 hurdat_atl main 835 784 O_____________ hurdat_atl AL061933 31.6000 -68.0000 HU 110 3 9 295
1933226N12339 1933 40 NA NA NOT_NAMED 1933-08-21 21:00:00 TS 31.7998 -68.5002 main 784 733 P_____________ AL061933 31.7998 -68.5002 HU 107 3 9 295
1933226N12339 1933 40 NA NA NOT_NAMED 1933-08-22 00:00:00 TS 32.0000 -69.0000 105 hurdat_atl main 733 682 O_____________ hurdat_atl AL061933 32.0000 -69.0000 HU 105 3 9 295
1933226N12339 1933 40 NA NA NOT_NAMED 1933-08-22 03:00:00 TS 32.1997 -69.4928 main 682 631 P_____________ AL061933 32.1997 -69.4928 HU 105 3 9 295
1933226N12339 1933 40 NA NA NOT_NAMED 1933-08-22 06:00:00 TS 32.4000 -70.0000 105 hurdat_atl main 631 581 O_____________ hurdat_atl AL061933 32.4000 -70.0000 HU 105 3 10 294
1933226N12339 1933 40 NA NA NOT_NAMED 1933-08-22 09:00:00 TS 32.5847 -70.5281 main 581 523 P_____________ AL061933 32.5847 -70.5281 HU 105 3 10 293
1933226N12339 1933 40 NA NA NOT_NAMED 1933-08-22 12:00:00 TS 32.8000 -71.1000 105 hurdat_atl main 523 459 O_____________ hurdat_atl AL061933 32.8000 -71.1000 HU 105 3 11 296
1933226N12339 1933 40 NA NA NOT_NAMED 1933-08-22 15:00:00 TS 33.0774 -71.7352 main 459 388 P_____________ AL061933 33.0774 -71.7352 HU 102 3 12 299
1933226N12339 1933 40 NA NA NOT_NAMED 1933-08-22 18:00:00 TS 33.4000 -72.4000 100 hurdat_atl main 388 324 O_____________ hurdat_atl AL061933 33.4000 -72.4000 HU 100 3 13 300
1933226N12339 1933 40 NA NA NOT_NAMED 1933-08-22 21:00:00 TS 33.7198 -73.0583 main 318 247 P_____________ AL061933 33.7198 -73.0583 HU 95 2 13 303
1933226N12339 1933 40 NA NA NOT_NAMED 1933-08-23 00:00:00 TS 34.1000 -73.7000 90 hurdat_atl main 247 176 O_____________ hurdat_atl AL061933 34.1000 -73.7000 HU 90 2 14 309
1933226N12339 1933 40 NA NA NOT_NAMED 1933-08-23 03:00:00 TS 34.5739 -74.3209 main 169 91 P_____________ AL061933 34.5739 -74.3209 HU 87 2 14 315
1933226N12339 1933 40 NA NA NOT_NAMED 1933-08-23 06:00:00 TS 35.1000 -74.9000 85 hurdat_atl main 91 24 O_____________ hurdat_atl AL061933 35.1000 -74.9000 HU 85 2 14 319
1933226N12339 1933 40 NA NA NOT_NAMED 1933-08-23 09:00:00 TS 35.6342 -75.4578 main 18 8 P_____________ AL061933 35.6342 -75.4578 HU 81 1 14 321
1933226N12339 1933 40 NA NA NOT_NAMED 1933-08-23 10:00:00 TS 35.8000 -75.6000 80 963 hurdat_atl main 8 0 O_____________ hurdat_atl AL061933 35.8000 -75.6000 L HU 80 963 1 11 329
1933226N12339 1933 40 NA NA NOT_NAMED 1933-08-23 12:00:00 TS 36.1000 -75.8000 75 966 hurdat_atl main 0 0 O_____________ hurdat_atl AL061933 36.1000 -75.8000 L HU 75 966 1 13 330
1933226N12339 1933 40 NA NA NOT_NAMED 1933-08-23 15:00:00 TS 36.7038 -76.2400 main 0 0 P_____________ AL061933 36.7038 -76.2400 HU 70 968 1 15 331
1933226N12339 1933 40 NA NA NOT_NAMED 1933-08-23 18:00:00 TS 37.4000 -76.7000 65 971 hurdat_atl main 0 0 O_____________ hurdat_atl AL061933 37.4000 -76.7000 HU 65 971 1 14 334
1933226N12339 1933 40 NA NA NOT_NAMED 1933-08-23 21:00:00 TS 38.0049 -77.0323 main 0 0 P_____________ AL061933 38.0049 -77.0323 HU 60 974 0 14 343
1933226N12339 1933 40 NA NA NOT_NAMED 1933-08-24 00:00:00 TS 38.7000 -77.2000 55 978 hurdat_atl main 0 0 O_____________ hurdat_atl AL061933 38.7000 -77.2000 TS 55 978 0 16 355
1933226N12339 1933 40 NA NA NOT_NAMED 1933-08-24 03:00:00 TS 39.6123 -77.1900 main 0 0 P_____________ AL061933 39.6123 -77.1900 TS 50 0 19 5
1933226N12339 1933 40 NA NA NOT_NAMED 1933-08-24 06:00:00 TS 40.6000 -77.0000 45 hurdat_atl main 0 0 O_____________ hurdat_atl AL061933 40.6000 -77.0000 TS 45 0 20 11
1933226N12339 1933 40 NA NA NOT_NAMED 1933-08-24 09:00:00 TS 41.5674 -76.7109 main 0 0 P_____________ AL061933 41.5674 -76.7109 TS 40 0 19 16
1933226N12339 1933 40 NA NA NOT_NAMED 1933-08-24 12:00:00 TS 42.4000 -76.3000 35 hurdat_atl main 0 0 O_____________ hurdat_atl AL061933 42.4000 -76.3000 TS 35 0 16 25
1933226N12339 1933 40 NA NA NOT_NAMED 1933-08-24 15:00:00 TS 42.9901 -75.8145 main 0 0 P_____________ AL061933 42.9901 -75.8145 TS 32 -1 12 36
1933226N12339 1933 40 NA NA NOT_NAMED 1933-08-24 18:00:00 TS 43.4000 -75.3000 30 hurdat_atl main 0 0 O_____________ hurdat_atl AL061933 43.4000 -75.3000 TD 30 -1 10 44
1933226N12339 1933 40 NA NA NOT_NAMED 1933-08-24 21:00:00 TS 43.7374 -74.8266 main 0 0 P_____________ AL061933 43.7374 -74.8266 TD 30 -1 9 47
1933226N12339 1933 40 NA NA NOT_NAMED 1933-08-25 00:00:00 TS 44.0000 -74.4000 30 hurdat_atl main 0 0 O_____________ hurdat_atl AL061933 44.0000 -74.4000 TD 30 -1 8 48
1933226N12339 1933 40 NA NA NOT_NAMED 1933-08-25 03:00:00 TS 44.2572 -74.0344 main 0 0 P_____________ AL061933 44.2572 -74.0344 TD 30 -1 7 45
1933226N12339 1933 40 NA NA NOT_NAMED 1933-08-25 06:00:00 TS 44.5000 -73.7000 30 hurdat_atl main 0 0 O_____________ hurdat_atl AL061933 44.5000 -73.7000 TD 30 -1 7 41
1933226N12339 1933 40 NA NA NOT_NAMED 1933-08-25 09:00:00 TS 44.7946 -73.3805 main 0 0 P_____________ AL061933 44.7946 -73.3805 TD 30 -1 7 45
1933226N12339 1933 40 NA NA NOT_NAMED 1933-08-25 12:00:00 TS 45.0000 -73.0000 30 hurdat_atl main 0 0 O_____________ hurdat_atl AL061933 45.0000 -73.0000 TD 30 -1 7 70
1933226N12339 1933 40 NA NA NOT_NAMED 1933-08-25 15:00:00 TS 45.0171 -72.5100 main 0 0 P_____________ AL061933 45.0171 -72.5100 TD 30 -1 8 97
1933226N12339 1933 40 NA NA NOT_NAMED 1933-08-25 18:00:00 ET 44.9000 -71.9000 30 hurdat_atl main 0 0 O_____________ hurdat_atl AL061933 44.9000 -71.9000 EX 30 -4 10 107
1933226N12339 1933 40 NA NA NOT_NAMED 1933-08-25 21:00:00 ET 44.7224 -71.1870 main 0 0 P_____________ AL061933 44.7224 -71.1870 EX 30 -4 11 111
1933226N12339 1933 40 NA NA NOT_NAMED 1933-08-26 00:00:00 ET 44.5000 -70.4000 30 hurdat_atl main 0 0 O_____________ hurdat_atl AL061933 44.5000 -70.4000 EX 30 -4 12 112
1933226N12339 1933 40 NA NA NOT_NAMED 1933-08-26 03:00:00 ET 44.2771 -69.6070 main 0 0 P_____________ AL061933 44.2771 -69.6070 EX 30 -4 12 109
1933226N12339 1933 40 NA NA NOT_NAMED 1933-08-26 06:00:00 ET 44.1000 -68.8000 30 hurdat_atl main 19 11 O_____________ hurdat_atl AL061933 44.1000 -68.8000 EX 30 -4 12 102
1933226N12339 1933 40 NA NA NOT_NAMED 1933-08-26 09:00:00 ET 44.0203 -67.9558 main 34 34 P_____________ AL061933 44.0203 -67.9558 EX 30 -4 12 95
1933226N12339 1933 40 NA NA NOT_NAMED 1933-08-26 12:00:00 ET 44.0000 -67.2000 30 hurdat_atl main 64 39 O_____________ hurdat_atl AL061933 44.0000 -67.2000 EX 30 -4 9 92
1933226N12339 1933 40 NA NA NOT_NAMED 1933-08-26 15:00:00 ET 43.9842 -66.6401 main 31 0 P_____________ AL061933 43.9842 -66.6401 EX 32 -4 7 90
1933226N12339 1933 40 NA NA NOT_NAMED 1933-08-26 18:00:00 ET 44.0000 -66.2000 35 hurdat_atl main 0 0 O_____________ hurdat_atl AL061933 44.0000 -66.2000 EX 35 -4 6 84
1933226N12339 1933 40 NA NA NOT_NAMED 1933-08-26 21:00:00 ET 44.0496 -65.7927 main 0 0 P_____________ AL061933 44.0496 -65.7927 EX 35 -4 6 80
1933226N12339 1933 40 NA NA NOT_NAMED 1933-08-27 00:00:00 ET 44.1000 -65.4000 35 hurdat_atl main 0 0 O_____________ hurdat_atl AL061933 44.1000 -65.4000 EX 35 -4 6 85
1933226N12339 1933 40 NA NA NOT_NAMED 1933-08-27 03:00:00 ET 44.0998 -64.9647 main 0 0 P_____________ AL061933 44.0998 -64.9647 EX 35 -4 6 90
1933226N12339 1933 40 NA NA NOT_NAMED 1933-08-27 06:00:00 ET 44.1000 -64.5000 35 hurdat_atl main 0 0 O_____________ hurdat_atl AL061933 44.1000 -64.5000 EX 35 -4 6 86
1933226N12339 1933 40 NA NA NOT_NAMED 1933-08-27 09:00:00 ET 44.1489 -64.0677 main 23 19 P_____________ AL061933 44.1489 -64.0677 EX 32 -4 7 82
1933226N12339 1933 40 NA NA NOT_NAMED 1933-08-27 12:00:00 ET 44.2000 -63.5000 30 hurdat_atl main 23 23 O_____________ hurdat_atl AL061933 44.2000 -63.5000 EX 30 -4 10 87
1933226N12339 1933 40 NA NA NOT_NAMED 1933-08-27 15:00:00 ET 44.1988 -62.7192 main 56 56 P_____________ AL061933 44.1988 -62.7192 EX 30 -4 13 90
1933226N12339 1933 40 NA NA NOT_NAMED 1933-08-27 18:00:00 ET 44.2000 -61.7000 30 hurdat_atl main 90 90 O_____________ hurdat_atl AL061933 44.2000 -61.7000 EX 30 -4 16 88
1933226N12339 1933 40 NA NA NOT_NAMED 1933-08-27 21:00:00 ET 44.2409 -60.5124 main 120 120 P_____________ AL061933 44.2409 -60.5124 EX 30 -4 19 87
1933226N12339 1933 40 NA NA NOT_NAMED 1933-08-28 00:00:00 ET 44.3000 -59.1000 30 hurdat_atl main 176 176 O_____________ hurdat_atl AL061933 44.3000 -59.1000 EX 30 -4 22 87
1933226N12339 1933 40 NA NA NOT_NAMED 1933-08-28 03:00:00 ET 44.3497 -57.5022 main 262 262 P_____________ AL061933 44.3497 -57.5022 EX 30 -4 24 88
1933226N12339 1933 40 NA NA NOT_NAMED 1933-08-28 06:00:00 ET 44.4000 -55.8000 30 hurdat_atl main 266 237 O_____________ hurdat_atl AL061933 44.4000 -55.8000 EX 30 -4 24 88
1933226N12339 1933 40 NA NA NOT_NAMED 1933-08-28 09:00:00 ET 44.4535 -54.1333 main 236 233 P_____________ AL061933 44.4535 -54.1333 EX 30 -4 24 88
1933226N12339 1933 40 NA NA NOT_NAMED 1933-08-28 12:00:00 ET 44.5000 -52.5000 30 hurdat_atl main 239 O_____________ hurdat_atl AL061933 44.5000 -52.5000 EX 30 -4 23 88

About IBTrACS Database

This database is a web-friendly format of International Best Track Archive for Climate Stewardship (IBTrACS), a global best track data archive curated by NOAA dating back to 1842.

Updated: 2021-10-08